sensor_id;sensor_type;location;lat;lon;timestamp;P1;durP1;ratioP1;P2;durP2;ratioP2
26048;SDS011;13822;51.568;5.086;2022-08-21T05:10:55;12.80;;;5.05;;
26048;SDS011;13822;51.568;5.086;2022-08-21T05:16:00;11.13;;;4.78;;
26048;SDS011;13822;51.568;5.086;2022-08-21T05:26:05;10.45;;;4.78;;
26048;SDS011;13822;51.568;5.086;2022-08-21T05:31:18;10.85;;;4.82;;
26048;SDS011;13822;51.568;5.086;2022-08-21T05:36:20;10.95;;;4.97;;
26048;SDS011;13822;51.568;5.086;2022-08-21T05:41:22;9.93;;;5.07;;
26048;SDS011;13822;51.568;5.086;2022-08-21T05:46:24;12.10;;;5.10;;
26048;SDS011;13822;51.568;5.086;2022-08-21T05:51:26;9.55;;;4.65;;
26048;SDS011;13822;51.568;5.086;2022-08-21T05:56:28;11.20;;;5.20;;
26048;SDS011;13822;51.568;5.086;2022-08-21T06:01:30;9.90;;;4.88;;
26048;SDS011;13822;51.568;5.086;2022-08-21T06:06:33;11.38;;;5.22;;
26048;SDS011;13822;51.568;5.086;2022-08-21T06:11:36;13.00;;;5.68;;
26048;SDS011;13822;51.568;5.086;2022-08-21T06:16:38;12.15;;;5.78;;
26048;SDS011;13822;51.568;5.086;2022-08-21T06:21:40;12.48;;;5.38;;
26048;SDS011;13822;51.568;5.086;2022-08-21T06:26:41;10.85;;;5.78;;
26048;SDS011;13822;51.568;5.086;2022-08-21T06:31:43;13.18;;;5.15;;
26048;SDS011;13822;51.568;5.086;2022-08-21T06:36:48;14.50;;;5.57;;
26048;SDS011;13822;51.568;5.086;2022-08-21T06:41:49;9.05;;;3.40;;
26048;SDS011;13822;51.568;5.086;2022-08-21T06:46:51;12.38;;;5.13;;
26048;SDS011;13822;51.568;5.086;2022-08-21T06:51:53;11.52;;;5.25;;
26048;SDS011;13822;51.568;5.086;2022-08-21T06:56:55;10.35;;;4.85;;
26048;SDS011;13822;51.568;5.086;2022-08-21T07:01:58;13.10;;;4.65;;
26048;SDS011;13822;51.568;5.086;2022-08-21T07:07:00;12.65;;;4.90;;
26048;SDS011;13822;51.568;5.086;2022-08-21T07:12:02;15.80;;;5.03;;
26048;SDS011;13822;51.568;5.086;2022-08-21T07:17:05;15.07;;;5.18;;
26048;SDS011;13822;51.568;5.086;2022-08-21T07:22:07;14.70;;;5.20;;
26048;SDS011;13822;51.568;5.086;2022-08-21T07:27:09;10.70;;;5.00;;
26048;SDS011;13822;51.568;5.086;2022-08-21T07:32:11;10.55;;;5.57;;
26048;SDS011;13822;51.568;5.086;2022-08-21T07:37:13;14.57;;;5.65;;
26048;SDS011;13822;51.568;5.086;2022-08-21T07:42:17;11.55;;;5.13;;
26048;SDS011;13822;51.568;5.086;2022-08-21T07:47:19;15.63;;;5.90;;
26048;SDS011;13822;51.568;5.086;2022-08-21T07:52:42;17.15;;;5.70;;
26048;SDS011;13822;51.568;5.086;2022-08-21T07:57:45;16.23;;;4.90;;
26048;SDS011;13822;51.568;5.086;2022-08-21T08:02:49;10.80;;;4.38;;
26048;SDS011;13822;51.568;5.086;2022-08-21T08:07:52;19.58;;;5.55;;
26048;SDS011;13822;51.568;5.086;2022-08-21T08:17:57;11.80;;;4.23;;
26048;SDS011;13822;51.568;5.086;2022-08-21T08:22:59;13.90;;;4.60;;
26048;SDS011;13822;51.568;5.086;2022-08-21T08:33:16;10.95;;;4.75;;
26048;SDS011;13822;51.568;5.086;2022-08-21T08:38:19;12.63;;;4.75;;
26048;SDS011;13822;51.568;5.086;2022-08-21T08:43:24;14.23;;;4.30;;
26048;SDS011;13822;51.568;5.086;2022-08-21T08:54:12;11.02;;;3.75;;
26048;SDS011;13822;51.568;5.086;2022-08-21T08:59:27;7.50;;;3.70;;
26048;SDS011;13822;51.568;5.086;2022-08-21T09:04:46;12.18;;;4.55;;
26048;SDS011;13822;51.568;5.086;2022-08-21T09:15:35;13.48;;;4.80;;
26048;SDS011;13822;51.568;5.086;2022-08-21T09:21:06;12.40;;;5.22;;
26048;SDS011;13822;51.568;5.086;2022-08-21T09:26:27;13.75;;;5.10;;
26048;SDS011;13822;51.568;5.086;2022-08-21T09:31:44;11.27;;;4.18;;
26048;SDS011;13822;51.568;5.086;2022-08-21T09:36:49;16.08;;;3.38;;
26048;SDS011;13822;51.568;5.086;2022-08-21T09:41:59;7.47;;;2.33;;
26048;SDS011;13822;51.568;5.086;2022-08-21T09:47:06;11.35;;;3.42;;
26048;SDS011;13822;51.568;5.086;2022-08-21T09:52:22;5.18;;;2.53;;
26048;SDS011;13822;51.568;5.086;2022-08-21T09:57:27;9.60;;;2.90;;
26048;SDS011;13822;51.568;5.086;2022-08-21T10:02:47;5.95;;;1.92;;
26048;SDS011;13822;51.568;5.086;2022-08-21T10:07:49;10.13;;;2.53;;
26048;SDS011;13822;51.568;5.086;2022-08-21T10:18:26;5.05;;;2.00;;
26048;SDS011;13822;51.568;5.086;2022-08-21T10:24:19;3.95;;;1.70;;
26048;SDS011;13822;51.568;5.086;2022-08-21T10:35:33;6.88;;;1.92;;
26048;SDS011;13822;51.568;5.086;2022-08-21T10:56:58;6.32;;;1.80;;
26048;SDS011;13822;51.568;5.086;2022-08-21T11:13:17;3.90;;;1.52;;
26048;SDS011;13822;51.568;5.086;2022-08-21T11:18:37;8.35;;;1.75;;
26048;SDS011;13822;51.568;5.086;2022-08-21T11:23:50;6.55;;;1.60;;
26048;SDS011;13822;51.568;5.086;2022-08-21T11:29:23;4.83;;;1.10;;
26048;SDS011;13822;51.568;5.086;2022-08-21T11:40:00;5.68;;;1.38;;
26048;SDS011;13822;51.568;5.086;2022-08-21T11:45:14;6.47;;;1.50;;
26048;SDS011;13822;51.568;5.086;2022-08-21T11:50:21;6.25;;;1.70;;
26048;SDS011;13822;51.568;5.086;2022-08-21T11:55:41;9.13;;;1.55;;
26048;SDS011;13822;51.568;5.086;2022-08-21T12:01:10;8.13;;;1.48;;
26048;SDS011;13822;51.568;5.086;2022-08-21T12:06:32;7.15;;;1.70;;
26048;SDS011;13822;51.568;5.086;2022-08-21T12:11:48;5.72;;;1.65;;
26048;SDS011;13822;51.568;5.086;2022-08-21T12:17:08;7.55;;;1.90;;
26048;SDS011;13822;51.568;5.086;2022-08-21T12:22:22;6.53;;;1.83;;
26048;SDS011;13822;51.568;5.086;2022-08-21T12:27:44;11.13;;;1.88;;
26048;SDS011;13822;51.568;5.086;2022-08-21T12:33:26;7.88;;;1.90;;
26048;SDS011;13822;51.568;5.086;2022-08-21T12:38:45;5.28;;;1.30;;
26048;SDS011;13822;51.568;5.086;2022-08-21T12:43:59;8.40;;;1.77;;
26048;SDS011;13822;51.568;5.086;2022-08-21T12:54:31;6.13;;;1.80;;
26048;SDS011;13822;51.568;5.086;2022-08-21T12:59:40;7.28;;;1.70;;
26048;SDS011;13822;51.568;5.086;2022-08-21T13:04:42;4.78;;;1.60;;
26048;SDS011;13822;51.568;5.086;2022-08-21T13:09:56;6.15;;;1.85;;
26048;SDS011;13822;51.568;5.086;2022-08-21T13:21:03;8.70;;;2.10;;
26048;SDS011;13822;51.568;5.086;2022-08-21T13:26:13;8.23;;;2.10;;
26048;SDS011;13822;51.568;5.086;2022-08-21T13:31:22;8.27;;;1.90;;
26048;SDS011;13822;51.568;5.086;2022-08-21T13:36:29;5.82;;;2.17;;
26048;SDS011;13822;51.568;5.086;2022-08-21T13:41:37;9.50;;;2.33;;
26048;SDS011;13822;51.568;5.086;2022-08-21T13:46:43;6.15;;;1.75;;
26048;SDS011;13822;51.568;5.086;2022-08-21T13:51:46;7.25;;;1.73;;
26048;SDS011;13822;51.568;5.086;2022-08-21T13:56:49;7.05;;;1.40;;
26048;SDS011;13822;51.568;5.086;2022-08-21T14:01:52;7.75;;;1.85;;
26048;SDS011;13822;51.568;5.086;2022-08-21T14:07:38;5.78;;;1.50;;
26048;SDS011;13822;51.568;5.086;2022-08-21T14:12:52;3.63;;;1.58;;
26048;SDS011;13822;51.568;5.086;2022-08-21T14:18:13;5.20;;;1.58;;
26048;SDS011;13822;51.568;5.086;2022-08-21T14:23:26;5.88;;;1.77;;
26048;SDS011;13822;51.568;5.086;2022-08-21T14:28:38;4.65;;;1.73;;
26048;SDS011;13822;51.568;5.086;2022-08-21T14:33:42;6.07;;;2.38;;
26048;SDS011;13822;51.568;5.086;2022-08-21T14:38:45;4.38;;;2.03;;
26048;SDS011;13822;51.568;5.086;2022-08-21T14:43:47;6.78;;;2.40;;
26048;SDS011;13822;51.568;5.086;2022-08-21T14:49:09;8.07;;;2.60;;
26048;SDS011;13822;51.568;5.086;2022-08-21T14:54:12;16.63;;;2.30;;
26048;SDS011;13822;51.568;5.086;2022-08-21T14:59:14;3.58;;;1.80;;
26048;SDS011;13822;51.568;5.086;2022-08-21T15:04:16;7.55;;;1.85;;
26048;SDS011;13822;51.568;5.086;2022-08-21T15:09:18;8.82;;;1.65;;
26048;SDS011;13822;51.568;5.086;2022-08-21T15:14:23;3.45;;;1.52;;
26048;SDS011;13822;51.568;5.086;2022-08-21T15:19:29;5.97;;;1.85;;
26048;SDS011;13822;51.568;5.086;2022-08-21T15:24:31;6.07;;;1.80;;
26048;SDS011;13822;51.568;5.086;2022-08-21T15:29:34;3.75;;;1.92;;
26048;SDS011;13822;51.568;5.086;2022-08-21T15:34:36;5.20;;;1.90;;
26048;SDS011;13822;51.568;5.086;2022-08-21T15:39:38;5.88;;;1.80;;
26048;SDS011;13822;51.568;5.086;2022-08-21T15:44:41;6.75;;;2.00;;
26048;SDS011;13822;51.568;5.086;2022-08-21T15:49:45;7.70;;;2.17;;
26048;SDS011;13822;51.568;5.086;2022-08-21T15:54:48;9.40;;;2.17;;
26048;SDS011;13822;51.568;5.086;2022-08-21T15:59:52;8.02;;;1.75;;
26048;SDS011;13822;51.568;5.086;2022-08-21T16:04:58;4.03;;;2.03;;
26048;SDS011;13822;51.568;5.086;2022-08-21T16:10:01;6.57;;;2.00;;
26048;SDS011;13822;51.568;5.086;2022-08-21T16:15:06;6.10;;;2.03;;
26048;SDS011;13822;51.568;5.086;2022-08-21T16:20:22;7.95;;;2.20;;
26048;SDS011;13822;51.568;5.086;2022-08-21T16:25:28;9.30;;;2.42;;
26048;SDS011;13822;51.568;5.086;2022-08-21T16:30:34;7.22;;;1.75;;
26048;SDS011;13822;51.568;5.086;2022-08-21T16:35:36;7.38;;;2.10;;
26048;SDS011;13822;51.568;5.086;2022-08-21T16:40:38;6.20;;;1.73;;
26048;SDS011;13822;51.568;5.086;2022-08-21T16:45:41;8.07;;;2.28;;
26048;SDS011;13822;51.568;5.086;2022-08-21T16:50:44;7.68;;;1.92;;
26048;SDS011;13822;51.568;5.086;2022-08-21T16:55:51;8.30;;;2.15;;
26048;SDS011;13822;51.568;5.086;2022-08-21T17:00:55;6.90;;;2.47;;
26048;SDS011;13822;51.568;5.086;2022-08-21T17:05:59;8.38;;;2.17;;
26048;SDS011;13822;51.568;5.086;2022-08-21T17:11:03;4.47;;;1.80;;
26048;SDS011;13822;51.568;5.086;2022-08-21T17:16:08;8.73;;;2.20;;
26048;SDS011;13822;51.568;5.086;2022-08-21T17:26:18;6.43;;;2.08;;
26048;SDS011;13822;51.568;5.086;2022-08-21T17:31:20;6.93;;;2.08;;
26048;SDS011;13822;51.568;5.086;2022-08-21T17:36:26;4.22;;;1.70;;
26048;SDS011;13822;51.568;5.086;2022-08-21T17:41:30;4.93;;;1.85;;
26048;SDS011;13822;51.568;5.086;2022-08-21T17:46:32;8.15;;;2.05;;
26048;SDS011;13822;51.568;5.086;2022-08-21T17:51:35;8.88;;;2.13;;
26048;SDS011;13822;51.568;5.086;2022-08-21T17:56:38;5.70;;;2.15;;
26048;SDS011;13822;51.568;5.086;2022-08-21T18:01:43;5.53;;;1.75;;
26048;SDS011;13822;51.568;5.086;2022-08-21T18:06:48;5.88;;;1.70;;
26048;SDS011;13822;51.568;5.086;2022-08-21T18:16:54;4.10;;;1.63;;
26048;SDS011;13822;51.568;5.086;2022-08-21T18:21:59;5.70;;;1.70;;
26048;SDS011;13822;51.568;5.086;2022-08-21T18:27:05;7.43;;;1.77;;
26048;SDS011;13822;51.568;5.086;2022-08-21T18:32:11;5.55;;;1.60;;
26048;SDS011;13822;51.568;5.086;2022-08-21T18:37:32;7.07;;;2.13;;
26048;SDS011;13822;51.568;5.086;2022-08-21T18:42:36;7.50;;;1.95;;
26048;SDS011;13822;51.568;5.086;2022-08-21T18:47:55;4.57;;;1.90;;
26048;SDS011;13822;51.568;5.086;2022-08-21T18:52:58;8.50;;;2.40;;
26048;SDS011;13822;51.568;5.086;2022-08-21T18:58:00;6.47;;;2.08;;
26048;SDS011;13822;51.568;5.086;2022-08-21T19:03:04;5.88;;;2.03;;
26048;SDS011;13822;51.568;5.086;2022-08-21T19:08:09;6.80;;;1.92;;
26048;SDS011;13822;51.568;5.086;2022-08-21T19:13:14;7.55;;;2.28;;
26048;SDS011;13822;51.568;5.086;2022-08-21T19:18:23;10.07;;;2.45;;
